createdAt,value
2022-09-23T00:00:00.297Z,74
2022-09-23T00:10:00.365Z,74
2022-09-23T00:20:00.309Z,74
2022-09-23T00:30:00.313Z,74
2022-09-23T00:40:00.315Z,74
2022-09-23T00:50:00.315Z,74
2022-09-23T01:00:00.311Z,74
2022-09-23T01:10:00.294Z,74
2022-09-23T01:20:00.344Z,74
2022-09-23T01:30:00.315Z,74
2022-09-23T01:40:00.474Z,74
2022-09-23T01:50:00.475Z,75
2022-09-23T02:00:00.354Z,75
2022-09-23T02:10:00.287Z,75
2022-09-23T02:20:00.274Z,75
2022-09-23T02:30:00.335Z,75
2022-09-23T02:40:00.341Z,75
2022-09-23T02:50:00.328Z,75
2022-09-23T03:00:00.296Z,75
2022-09-23T03:10:00.301Z,75
2022-09-23T03:20:00.316Z,75
2022-09-23T03:30:00.311Z,75
2022-09-23T03:40:00.357Z,76
2022-09-23T03:50:00.367Z,76
2022-09-23T04:00:00.477Z,76
2022-09-23T04:10:00.310Z,76
2022-09-23T04:20:00.290Z,76
2022-09-23T04:30:00.320Z,76
2022-09-23T04:40:00.274Z,76
2022-09-23T04:50:00.380Z,76
2022-09-23T05:00:00.292Z,76
2022-09-23T05:10:00.323Z,76
2022-09-23T05:20:00.290Z,76
2022-09-23T05:30:00.303Z,76
2022-09-23T05:40:00.293Z,77
2022-09-23T05:50:00.902Z,77
2022-09-23T06:00:00.340Z,78
2022-09-23T06:10:00.685Z,79
2022-09-23T06:20:00.306Z,79
2022-09-23T06:30:00.301Z,80
2022-09-23T06:40:00.310Z,80
2022-09-23T06:50:00.296Z,80
2022-09-23T07:00:00.314Z,81
2022-09-23T07:10:00.337Z,80
2022-09-23T07:20:00.304Z,81
2022-09-23T07:40:00.296Z,80
2022-09-23T07:50:00.295Z,79
2022-09-23T08:00:00.293Z,78
2022-09-23T08:10:00.299Z,76
2022-09-23T08:20:00.342Z,75
2022-09-23T08:30:00.313Z,73
2022-09-23T08:40:00.286Z,73
2022-09-23T08:50:00.304Z,68
2022-09-23T09:00:00.310Z,66
2022-09-23T09:10:00.291Z,65
2022-09-23T09:20:00.274Z,61
2022-09-23T09:30:00.344Z,61
2022-09-23T09:40:00.310Z,58
2022-09-23T09:50:00.310Z,61
2022-09-23T10:00:00.240Z,61
2022-09-23T10:10:22.003Z,61
2022-09-23T10:20:00.464Z,59
2022-09-23T10:30:00.335Z,59
2022-09-23T10:40:00.319Z,58
2022-09-23T10:50:00.282Z,58
2022-09-23T11:00:00.276Z,56
2022-09-23T11:10:00.272Z,54
2022-09-23T11:20:00.257Z,55
2022-09-23T11:30:00.295Z,55
2022-09-23T11:40:00.278Z,55
2022-09-23T11:50:00.300Z,54
2022-09-23T12:00:00.392Z,54
2022-09-23T12:10:00.337Z,54
2022-09-23T12:20:00.336Z,54
2022-09-23T12:30:00.340Z,52
2022-09-23T12:40:00.289Z,52
2022-09-23T12:50:00.310Z,52
2022-09-23T13:00:00.269Z,52
2022-09-23T13:10:00.421Z,52
2022-09-23T13:20:00.332Z,52
2022-09-23T13:30:00.335Z,51
2022-09-23T13:40:00.302Z,52
2022-09-23T13:50:00.328Z,53
2022-09-23T14:00:00.303Z,51
2022-09-23T14:10:00.342Z,52
2022-09-23T14:20:00.279Z,52
2022-09-23T14:30:00.351Z,51
2022-09-23T14:40:00.310Z,51
2022-09-23T14:50:00.292Z,51
2022-09-23T15:00:00.300Z,51
2022-09-23T15:10:00.514Z,52
2022-09-23T15:20:00.299Z,53
2022-09-23T15:30:00.362Z,53
2022-09-23T15:40:00.382Z,54
2022-09-23T15:50:00.312Z,55
2022-09-23T16:00:00.345Z,56
2022-09-23T16:10:00.294Z,56
2022-09-23T16:20:00.326Z,57
2022-09-23T16:30:00.349Z,58
2022-09-23T16:40:00.364Z,58
2022-09-23T16:50:00.377Z,59
2022-09-23T17:00:00.463Z,60
2022-09-23T17:10:00.446Z,60
2022-09-23T17:20:00.313Z,61
2022-09-23T17:30:00.307Z,61
2022-09-23T17:40:00.318Z,62
2022-09-23T17:50:00.393Z,62
2022-09-23T18:00:00.319Z,63
2022-09-23T18:10:00.322Z,63
2022-09-23T18:20:00.362Z,64
2022-09-23T18:30:00.350Z,64
2022-09-23T18:40:00.306Z,65
2022-09-23T18:50:00.332Z,65
2022-09-23T19:00:00.519Z,65
2022-09-23T19:10:00.309Z,66
2022-09-23T19:20:00.669Z,66
2022-09-23T19:30:00.337Z,67
2022-09-23T19:40:00.307Z,67
2022-09-23T19:50:00.286Z,68
2022-09-23T20:00:00.309Z,69
2022-09-23T20:10:00.369Z,69
2022-09-23T20:20:00.346Z,69
2022-09-23T20:30:00.322Z,69
2022-09-23T20:40:00.301Z,70
2022-09-23T20:50:00.316Z,70
2022-09-23T21:00:00.310Z,70
2022-09-23T21:10:00.336Z,70
2022-09-23T21:20:00.365Z,70
2022-09-23T21:30:00.309Z,70
2022-09-23T21:40:00.285Z,70
2022-09-23T21:50:00.366Z,70
2022-09-23T22:00:00.398Z,71
2022-09-23T22:10:00.332Z,71
2022-09-23T22:20:00.313Z,71
2022-09-23T22:30:00.352Z,72
2022-09-23T22:40:00.302Z,72
2022-09-23T22:50:00.303Z,72
2022-09-23T23:00:00.367Z,72
2022-09-23T23:10:00.327Z,72
2022-09-23T23:20:00.312Z,72
2022-09-23T23:30:00.327Z,72
2022-09-23T23:40:00.364Z,72
2022-09-23T23:50:00.318Z,72
